Time;durP1;ratioP1;P1;durP2;ratioP2;P2;SDS_P1;SDS_P2;PMS_P1;PMS_P2;Temp;Humidity;BMP_temperature;BMP_pressure;BME280_temperature;BME280_humidity;BME280_pressure;Samples;Min_cycle;Max_cycle;Signal;HPM_P1;HPM_P2
2022/11/26 00:00:26;;;;;;;15.73;5.30;;;5.00;99.90;;;;;;4976826;28;20043;-79
2022/11/26 00:02:52;;;;;;;16.58;5.07;;;5.00;99.90;;;;;;4959457;28;20030;-79
2022/11/26 00:05:18;;;;;;;15.13;5.35;;;5.00;99.90;;;;;;5003054;28;20092;-79
2022/11/26 00:07:51;;;;;;;15.07;5.45;;;4.90;99.90;;;;;;4980082;28;20515;-79
2022/11/26 00:10:20;;;;;;;21.65;5.72;;;4.90;99.90;;;;;;4977318;28;20052;-79
2022/11/26 00:12:46;;;;;;;21.02;5.75;;;5.00;99.90;;;;;;4977502;28;20048;-79
2022/11/26 00:15:23;;;;;;;19.17;5.32;;;5.00;99.90;;;;;;4980716;28;20046;-79
2022/11/26 00:17:51;;;;;;;16.83;5.68;;;4.90;99.90;;;;;;4979583;28;20050;-79
2022/11/26 00:20:19;;;;;;;16.10;5.78;;;4.90;99.90;;;;;;4954615;28;20121;-79
2022/11/26 00:22:52;;;;;;;13.73;5.82;;;5.00;99.90;;;;;;4980814;28;20097;-79
2022/11/26 00:25:40;;;;;;;18.40;5.53;;;4.90;99.90;;;;;;4980699;28;20031;-79
2022/11/26 00:28:27;;;;;;;16.70;5.80;;;4.90;99.90;;;;;;4989032;28;20046;-79
2022/11/26 00:30:58;;;;;;;15.70;5.70;;;4.90;99.90;;;;;;4976457;28;20117;-79
2022/11/26 00:33:24;;;;;;;18.80;5.72;;;4.90;99.90;;;;;;4977773;28;20057;-79
2022/11/26 00:35:54;;;;;;;16.70;5.85;;;4.90;99.90;;;;;;4981196;28;20041;-79
2022/11/26 00:38:21;;;;;;;21.70;6.40;;;4.90;99.90;;;;;;4974476;28;20208;-79
2022/11/26 00:40:47;;;;;;;21.17;6.35;;;4.90;99.90;;;;;;4983807;28;20133;-79
2022/11/26 00:43:14;;;;;;;19.30;5.90;;;4.90;99.90;;;;;;4979512;28;20058;-79
2022/11/26 00:45:40;;;;;;;19.50;5.88;;;4.80;99.90;;;;;;4984858;28;20031;-79
2022/11/26 00:48:06;;;;;;;16.73;5.97;;;4.80;99.90;;;;;;4959883;28;20042;-79
2022/11/26 00:50:40;;;;;;;16.05;6.10;;;4.80;99.90;;;;;;4980157;28;20057;-79
2022/11/26 00:53:09;;;;;;;14.63;5.82;;;4.80;99.90;;;;;;4972579;28;20416;-79
2022/11/26 00:55:41;;;;;;;20.85;5.82;;;4.80;99.90;;;;;;4982018;28;20098;-79
2022/11/26 00:58:12;;;;;;;17.05;5.75;;;4.80;99.90;;;;;;4977809;28;20489;-79
2022/11/26 01:00:37;;;;;;;17.90;6.20;;;4.90;99.90;;;;;;4962694;28;20031;-78
2022/11/26 01:03:03;;;;;;;18.50;5.70;;;4.70;99.90;;;;;;4989834;28;20488;-79
2022/11/26 01:05:32;;;;;;;20.67;6.20;;;4.70;99.90;;;;;;4974006;28;20547;-78
2022/11/26 01:08:01;;;;;;;20.75;6.07;;;4.70;99.90;;;;;;4984638;28;20073;-79
2022/11/26 01:10:29;;;;;;;18.00;5.97;;;4.60;99.90;;;;;;4977539;28;20220;-78
2022/11/26 01:12:55;;;;;;;20.00;6.40;;;4.70;99.90;;;;;;4982033;28;20152;-79
2022/11/26 01:15:23;;;;;;;27.15;7.68;;;4.70;99.90;;;;;;4975452;28;20042;-78
2022/11/26 01:17:49;;;;;;;17.98;6.47;;;4.70;99.90;;;;;;4976211;28;20459;-79
2022/11/26 01:20:23;;;;;;;24.35;7.15;;;4.60;99.90;;;;;;4977379;28;20041;-78
2022/11/26 01:22:50;;;;;;;21.27;6.45;;;4.70;99.90;;;;;;4981130;28;20038;-78
2022/11/26 01:25:16;;;;;;;17.33;6.65;;;4.60;99.90;;;;;;4978492;28;20029;-78
2022/11/26 01:27:42;;;;;;;20.88;6.72;;;4.60;99.90;;;;;;4977248;28;20066;-79
2022/11/26 01:30:18;;;;;;;20.00;6.47;;;4.60;99.90;;;;;;4979268;28;20037;-79
2022/11/26 01:32:43;;;;;;;21.65;7.00;;;4.60;99.90;;;;;;4977506;28;20069;-78
2022/11/26 01:35:09;;;;;;;17.30;6.47;;;4.50;99.90;;;;;;4979109;28;20038;-78
2022/11/26 01:37:35;;;;;;;17.85;6.75;;;4.60;99.90;;;;;;4979214;28;20089;-79
2022/11/26 01:40:01;;;;;;;15.15;6.45;;;4.60;99.90;;;;;;4982762;28;20046;-78
2022/11/26 01:42:47;;;;;;;16.23;6.80;;;4.60;99.90;;;;;;4986469;28;20042;-78
2022/11/26 01:45:18;;;;;;;20.75;6.72;;;4.50;99.90;;;;;;5007794;28;20066;-78
2022/11/26 01:47:47;;;;;;;20.45;6.78;;;4.50;99.90;;;;;;4982831;28;20066;-78
2022/11/26 01:50:28;;;;;;;18.80;6.82;;;4.50;99.90;;;;;;4980524;28;20038;-78
2022/11/26 01:53:09;;;;;;;24.83;7.35;;;4.50;99.90;;;;;;4980581;28;20054;-78
2022/11/26 01:55:42;;;;;;;23.23;7.05;;;4.50;99.90;;;;;;4982100;28;20148;-78
2022/11/26 01:58:13;;;;;;;16.30;7.13;;;4.50;99.90;;;;;;4980905;28;20444;-78
2022/11/26 02:00:39;;;;;;;17.55;7.15;;;4.50;99.90;;;;;;4979726;28;20488;-79
2022/11/26 02:03:05;;;;;;;20.42;7.40;;;4.50;99.90;;;;;;4964599;28;20035;-79
2022/11/26 02:05:38;;;;;;;24.33;7.07;;;4.50;99.90;;;;;;4981952;28;20699;-79
2022/11/26 02:08:04;;;;;;;23.60;9.13;;;4.50;99.90;;;;;;4977681;28;20354;-78
2022/11/26 02:10:30;;;;;;;22.50;7.18;;;4.50;99.90;;;;;;4983463;28;20045;-78
2022/11/26 02:12:55;;;;;;;17.33;7.32;;;4.50;99.90;;;;;;4981434;28;20065;-78
2022/11/26 02:15:25;;;;;;;25.42;7.25;;;4.40;99.90;;;;;;4975187;28;20400;-78
2022/11/26 02:18:07;;;;;;;19.83;7.22;;;4.40;99.90;;;;;;4959098;28;20046;-78
2022/11/26 02:20:52;;;;;;;24.63;7.93;;;4.40;99.90;;;;;;5011678;28;20046;-78
2022/11/26 02:23:42;;;;;;;27.02;8.35;;;4.40;99.90;;;;;;4985480;28;20038;-79
2022/11/26 02:26:31;;;;;;;19.20;8.15;;;4.40;99.90;;;;;;4986839;28;20038;-78
2022/11/26 02:29:29;;;;;;;19.38;7.57;;;4.50;99.90;;;;;;4980106;28;20443;-80
2022/11/26 02:32:15;;;;;;;20.73;7.30;;;4.40;99.90;;;;;;4980077;28;20046;-79
2022/11/26 02:35:19;;;;;;;15.60;7.25;;;4.50;99.90;;;;;;4977439;28;20049;-78
2022/11/26 02:37:50;;;;;;;18.27;7.03;;;4.40;99.90;;;;;;4975798;28;20043;-78
2022/11/26 02:40:16;;;;;;;20.05;6.90;;;4.50;99.90;;;;;;4980158;28;20026;-78
2022/11/26 02:42:41;;;;;;;16.95;7.22;;;4.40;99.90;;;;;;4978658;28;20125;-78
2022/11/26 02:45:11;;;;;;;20.50;7.15;;;4.50;99.90;;;;;;4992193;28;20031;-78
2022/11/26 02:47:39;;;;;;;24.52;7.50;;;4.50;99.90;;;;;;4986201;28;20034;-78
2022/11/26 02:50:10;;;;;;;19.15;7.72;;;4.50;99.90;;;;;;4977363;28;20532;-78
2022/11/26 02:52:40;;;;;;;22.65;7.32;;;4.50;99.90;;;;;;4982007;28;20440;-78
2022/11/26 02:55:08;;;;;;;24.70;7.75;;;4.50;99.90;;;;;;4979772;28;20042;-78
2022/11/26 02:57:39;;;;;;;21.77;7.25;;;4.50;99.90;;;;;;4982436;28;20129;-79
2022/11/26 03:00:05;;;;;;;16.58;6.65;;;4.50;99.90;;;;;;4979557;28;20107;-78
2022/11/26 03:02:36;;;;;;;19.85;7.35;;;4.40;99.90;;;;;;4989669;28;20042;-79
2022/11/26 03:05:03;;;;;;;27.00;8.48;;;4.40;99.90;;;;;;4976794;28;20042;-79
2022/11/26 03:07:31;;;;;;;19.63;7.28;;;4.40;99.90;;;;;;5009082;28;20496;-79
2022/11/26 03:09:59;;;;;;;21.20;7.68;;;4.40;99.90;;;;;;4978099;28;20519;-79
2022/11/26 03:12:25;;;;;;;19.13;7.63;;;4.40;99.90;;;;;;4979062;28;20184;-78
2022/11/26 03:14:51;;;;;;;19.55;7.35;;;4.40;99.90;;;;;;4985140;28;20040;-79
2022/11/26 03:17:17;;;;;;;21.00;7.40;;;4.40;99.90;;;;;;4984282;28;20042;-79
2022/11/26 03:19:43;;;;;;;18.48;6.97;;;4.30;99.90;;;;;;4977757;28;20076;-79
2022/11/26 03:22:10;;;;;;;20.90;6.97;;;4.20;99.90;;;;;;4977165;28;20077;-78
2022/11/26 03:24:36;;;;;;;21.40;6.88;;;4.20;99.90;;;;;;4977020;28;20105;-78
2022/11/26 03:27:02;;;;;;;18.40;7.22;;;4.20;99.90;;;;;;4969368;28;20042;-78
2022/11/26 03:29:27;;;;;;;22.08;7.78;;;4.20;99.90;;;;;;4978778;28;20590;-79
2022/11/26 03:31:53;;;;;;;22.15;7.18;;;4.10;99.90;;;;;;4960221;28;20041;-79
2022/11/26 03:34:18;;;;;;;18.02;6.53;;;4.10;99.90;;;;;;4982732;28;20087;-78
2022/11/26 03:36:44;;;;;;;23.90;8.15;;;4.10;99.90;;;;;;4977571;28;20042;-78
2022/11/26 03:39:10;;;;;;;26.25;7.95;;;4.20;99.90;;;;;;4979626;28;20030;-79
2022/11/26 03:41:35;;;;;;;20.88;7.65;;;4.20;99.90;;;;;;4957690;28;20062;-78
2022/11/26 03:44:01;;;;;;;19.95;8.27;;;4.10;99.90;;;;;;4969749;28;20042;-78
2022/11/26 03:46:26;;;;;;;25.58;8.32;;;4.20;99.90;;;;;;4977759;28;20150;-77
2022/11/26 03:48:52;;;;;;;20.92;7.82;;;4.20;99.90;;;;;;4976961;28;20169;-78
2022/11/26 03:51:17;;;;;;;20.00;7.95;;;4.20;99.90;;;;;;4976757;28;20046;-79
2022/11/26 03:53:43;;;;;;;20.77;7.95;;;4.20;99.90;;;;;;4986109;28;20042;-77
2022/11/26 03:56:08;;;;;;;24.30;7.70;;;4.20;99.90;;;;;;4964057;28;20034;-78
2022/11/26 03:58:34;;;;;;;17.92;7.50;;;4.20;99.90;;;;;;4981268;28;20038;-78
2022/11/26 04:01:05;;;;;;;19.83;8.00;;;4.20;99.90;;;;;;4980822;28;20046;-79
2022/11/26 04:03:30;;;;;;;22.50;8.57;;;4.20;99.90;;;;;;4970248;28;20073;-77
2022/11/26 04:05:56;;;;;;;23.52;8.57;;;4.20;99.90;;;;;;4976255;28;20038;-78
2022/11/26 04:08:21;;;;;;;19.90;7.80;;;4.20;99.90;;;;;;4979888;28;20373;-78
2022/11/26 04:10:47;;;;;;;23.05;8.18;;;4.20;99.90;;;;;;4983884;28;20046;-79
2022/11/26 04:13:12;;;;;;;23.02;8.52;;;4.20;99.90;;;;;;4977328;28;20038;-78
2022/11/26 04:15:38;;;;;;;23.92;8.45;;;4.20;99.90;;;;;;4975444;28;20381;-79
2022/11/26 04:18:03;;;;;;;22.70;8.35;;;4.20;99.90;;;;;;4975553;28;20058;-78
2022/11/26 04:20:29;;;;;;;19.15;8.63;;;4.20;99.90;;;;;;4959582;28;20069;-77
2022/11/26 04:22:54;;;;;;;17.60;8.63;;;4.20;99.90;;;;;;4982341;28;20259;-78
2022/11/26 04:25:20;;;;;;;19.15;8.90;;;4.20;99.90;;;;;;4981259;28;20042;-78
2022/11/26 04:27:46;;;;;;;23.67;8.10;;;4.10;99.90;;;;;;4961257;28;20149;-78
2022/11/26 04:30:12;;;;;;;23.27;8.38;;;4.20;99.90;;;;;;4976853;28;20049;-77
2022/11/26 04:32:38;;;;;;;22.00;8.52;;;4.20;99.90;;;;;;4981401;28;20093;-78
2022/11/26 04:35:06;;;;;;;20.98;8.38;;;4.10;99.90;;;;;;4977657;28;20042;-77
2022/11/26 04:37:32;;;;;;;20.85;7.80;;;4.10;99.90;;;;;;4977263;28;20496;-77
2022/11/26 04:39:57;;;;;;;21.42;8.40;;;4.10;99.90;;;;;;4974499;28;20062;-78
2022/11/26 04:42:23;;;;;;;23.33;8.65;;;4.10;99.90;;;;;;4976726;28;20066;-78
2022/11/26 04:44:48;;;;;;;22.77;7.45;;;4.10;99.90;;;;;;4974880;28;20046;-78
2022/11/26 04:47:14;;;;;;;18.70;8.52;;;4.10;99.90;;;;;;4972553;28;20046;-78
2022/11/26 04:49:39;;;;;;;19.30;7.70;;;4.10;99.90;;;;;;4961400;28;20079;-78
2022/11/26 04:52:05;;;;;;;15.93;8.13;;;4.10;99.90;;;;;;4976893;28;20408;-78
2022/11/26 04:54:30;;;;;;;18.65;8.63;;;4.10;99.90;;;;;;4985277;28;20484;-78
2022/11/26 04:56:56;;;;;;;23.95;8.38;;;4.10;99.90;;;;;;4980617;28;20057;-78
2022/11/26 04:59:21;;;;;;;19.95;8.05;;;4.00;99.90;;;;;;4979278;28;20035;-78
2022/11/26 05:01:47;;;;;;;24.45;8.25;;;4.10;99.90;;;;;;4980725;28;20117;-78
2022/11/26 05:04:13;;;;;;;18.55;8.25;;;4.00;99.90;;;;;;4981055;28;20049;-77
2022/11/26 05:06:38;;;;;;;21.90;7.97;;;4.00;99.90;;;;;;4982519;28;20049;-78
2022/11/26 05:09:04;;;;;;;20.75;8.75;;;4.00;99.90;;;;;;4974537;28;20048;-78
2022/11/26 05:11:29;;;;;;;17.00;8.10;;;4.00;99.90;;;;;;5008018;28;20126;-78
2022/11/26 05:13:55;;;;;;;20.42;8.90;;;3.90;99.90;;;;;;4975902;28;20043;-78
2022/11/26 05:16:20;;;;;;;19.52;9.07;;;3.90;99.90;;;;;;4992647;28;20522;-78
2022/11/26 05:18:46;;;;;;;17.92;8.20;;;3.90;99.90;;;;;;4965030;28;20047;-78
2022/11/26 05:21:11;;;;;;;28.00;9.13;;;3.90;99.90;;;;;;4977123;28;20123;-77
2022/11/26 05:23:37;;;;;;;20.50;8.07;;;3.90;99.90;;;;;;4977783;28;20046;-78
2022/11/26 05:26:02;;;;;;;24.08;9.20;;;3.90;99.90;;;;;;4980530;28;20034;-78
2022/11/26 05:28:28;;;;;;;26.27;9.45;;;3.90;99.90;;;;;;4977393;28;20042;-78
2022/11/26 05:30:58;;;;;;;27.55;9.93;;;3.90;99.90;;;;;;4972882;28;20082;-77
2022/11/26 05:33:24;;;;;;;29.17;9.68;;;3.80;99.90;;;;;;4977384;28;20085;-77
2022/11/26 05:35:49;;;;;;;20.48;9.40;;;3.80;99.90;;;;;;4982129;28;20062;-77
2022/11/26 05:38:15;;;;;;;23.52;9.25;;;3.90;99.90;;;;;;4978060;28;20046;-78
2022/11/26 05:40:40;;;;;;;21.40;9.48;;;3.90;99.90;;;;;;5008942;28;20125;-78
2022/11/26 05:43:06;;;;;;;22.42;9.55;;;3.90;99.90;;;;;;4977223;28;20078;-78
2022/11/26 05:45:31;;;;;;;19.77;9.00;;;3.90;99.90;;;;;;4979901;28;20038;-78
2022/11/26 05:47:57;;;;;;;20.52;9.05;;;3.80;99.90;;;;;;4981760;28;20042;-78
2022/11/26 05:50:23;;;;;;;22.90;9.60;;;3.80;99.90;;;;;;4978144;28;20125;-78
2022/11/26 05:52:48;;;;;;;25.42;9.50;;;3.80;99.90;;;;;;5009949;28;20042;-77
2022/11/26 05:55:15;;;;;;;17.63;9.50;;;3.80;99.90;;;;;;4982439;28;20532;-78
2022/11/26 05:57:41;;;;;;;19.33;9.63;;;3.80;99.90;;;;;;4977235;28;20042;-78
2022/11/26 06:00:08;;;;;;;31.77;10.20;;;3.70;99.90;;;;;;4974484;28;20119;-77
2022/11/26 06:02:34;;;;;;;23.92;9.88;;;3.70;99.90;;;;;;4984797;28;20100;-78
2022/11/26 06:04:59;;;;;;;25.48;11.00;;;3.70;99.90;;;;;;4982033;28;20038;-79
2022/11/26 06:07:25;;;;;;;19.88;9.95;;;3.60;99.90;;;;;;4986203;28;20038;-78
2022/11/26 06:09:50;;;;;;;18.75;9.93;;;3.60;99.90;;;;;;4977600;28;20042;-78
2022/11/26 06:12:16;;;;;;;19.80;9.38;;;3.60;99.90;;;;;;4977556;28;20546;-78
2022/11/26 06:14:41;;;;;;;16.23;9.52;;;3.50;99.90;;;;;;4978301;28;20046;-78
2022/11/26 06:17:07;;;;;;;22.80;10.13;;;3.50;99.90;;;;;;4975921;28;20050;-77
2022/11/26 06:19:32;;;;;;;26.67;10.32;;;3.50;99.90;;;;;;4994421;28;20046;-78
2022/11/26 06:21:58;;;;;;;21.85;9.50;;;3.50;99.90;;;;;;5010111;28;20034;-78
2022/11/26 06:24:24;;;;;;;16.95;9.43;;;3.50;99.90;;;;;;4958958;28;20035;-78
2022/11/26 06:26:49;;;;;;;19.05;9.70;;;3.50;99.90;;;;;;4977299;28;20050;-77
2022/11/26 06:29:15;;;;;;;22.60;10.20;;;3.50;99.90;;;;;;4975709;28;20132;-78
2022/11/26 06:31:40;;;;;;;20.58;10.27;;;3.40;99.90;;;;;;4976891;28;20038;-78
2022/11/26 06:34:06;;;;;;;17.27;10.05;;;3.40;99.90;;;;;;4961250;28;20082;-78
2022/11/26 06:36:31;;;;;;;20.67;10.13;;;3.40;99.90;;;;;;4978451;28;20038;-77
2022/11/26 06:38:57;;;;;;;25.67;10.20;;;3.40;99.90;;;;;;4982633;28;20049;-78
2022/11/26 06:41:22;;;;;;;27.92;10.52;;;3.40;99.90;;;;;;4994739;28;20092;-78
2022/11/26 06:43:48;;;;;;;24.73;10.50;;;3.40;99.90;;;;;;4980719;28;20042;-77
2022/11/26 06:46:13;;;;;;;17.92;10.00;;;3.40;99.90;;;;;;4977218;28;20034;-78
2022/11/26 06:48:39;;;;;;;34.45;11.40;;;3.40;99.90;;;;;;4961217;28;20047;-79
2022/11/26 06:51:14;;;;;;;25.48;9.88;;;3.40;99.90;;;;;;4976308;28;20042;-78
2022/11/26 06:53:39;;;;;;;17.35;9.57;;;3.30;99.90;;;;;;4960708;28;20046;-78
2022/11/26 06:56:09;;;;;;;27.73;10.68;;;3.40;99.90;;;;;;4992573;28;20121;-78
2022/11/26 06:58:35;;;;;;;29.77;11.18;;;3.40;99.90;;;;;;4975955;28;20408;-78
2022/11/26 07:01:09;;;;;;;23.27;10.45;;;3.40;99.90;;;;;;4976244;28;20038;-77
2022/11/26 07:03:35;;;;;;;19.15;10.32;;;3.40;99.90;;;;;;4976209;28;20034;-77
2022/11/26 07:06:00;;;;;;;27.95;12.23;;;3.40;99.90;;;;;;4992663;28;20034;-78
2022/11/26 07:08:26;;;;;;;20.77;10.82;;;3.50;99.90;;;;;;4980028;28;20043;-77
2022/11/26 07:10:52;;;;;;;21.40;11.02;;;3.40;99.90;;;;;;4975151;28;20089;-78
2022/11/26 07:13:17;;;;;;;19.17;10.48;;;3.40;99.90;;;;;;4990652;28;20077;-78
2022/11/26 07:15:43;;;;;;;24.55;11.23;;;3.40;99.90;;;;;;4989639;28;20133;-78
2022/11/26 07:18:08;;;;;;;24.38;12.40;;;3.40;99.90;;;;;;4962343;28;20540;-78
2022/11/26 07:20:35;;;;;;;28.60;11.18;;;3.40;99.90;;;;;;4971979;28;20492;-78
2022/11/26 07:23:01;;;;;;;29.67;12.27;;;3.50;99.90;;;;;;4947942;28;20043;-78
2022/11/26 07:25:28;;;;;;;31.75;11.77;;;3.50;99.90;;;;;;4986039;28;20045;-78
2022/11/26 07:27:54;;;;;;;19.05;11.18;;;3.50;99.90;;;;;;4959622;28;20050;-77
2022/11/26 07:30:19;;;;;;;22.38;11.90;;;3.60;99.90;;;;;;4971455;28;20043;-77
2022/11/26 07:32:45;;;;;;;19.85;11.30;;;3.60;99.90;;;;;;4974651;28;20041;-77
2022/11/26 07:35:10;;;;;;;27.40;11.57;;;3.70;99.90;;;;;;4975560;28;20104;-77
2022/11/26 07:37:36;;;;;;;23.75;11.18;;;3.70;99.90;;;;;;4991783;28;20407;-78
2022/11/26 07:40:03;;;;;;;22.33;11.40;;;3.80;99.90;;;;;;4975765;28;20038;-78
2022/11/26 07:42:31;;;;;;;31.50;13.27;;;3.80;99.90;;;;;;4992201;28;20420;-78
2022/11/26 07:44:56;;;;;;;24.10;12.73;;;3.90;99.90;;;;;;4967648;28;20114;-78
2022/11/26 07:47:22;;;;;;;25.70;12.25;;;3.90;99.90;;;;;;4959126;28;20572;-77
2022/11/26 07:49:47;;;;;;;23.10;12.32;;;3.90;99.90;;;;;;4958385;28;20074;-77
2022/11/26 07:52:13;;;;;;;25.23;12.02;;;4.00;99.90;;;;;;4972401;28;20413;-77
2022/11/26 07:54:38;;;;;;;31.80;12.48;;;4.00;99.90;;;;;;4981497;28;20057;-78
2022/11/26 07:57:03;;;;;;;29.77;12.13;;;4.10;99.90;;;;;;5005759;28;20038;-78
2022/11/26 07:59:29;;;;;;;27.25;12.93;;;4.10;99.90;;;;;;4957776;28;20034;-78
2022/11/26 08:01:55;;;;;;;32.67;13.75;;;4.10;99.90;;;;;;4962041;28;20042;-78
2022/11/26 08:04:20;;;;;;;32.83;13.63;;;4.10;99.90;;;;;;4974163;28;20042;-77
2022/11/26 08:06:46;;;;;;;31.30;12.45;;;4.10;99.90;;;;;;4975965;28;20042;-78
2022/11/26 08:09:11;;;;;;;33.25;13.02;;;4.20;99.90;;;;;;4973971;28;20035;-78
2022/11/26 08:11:37;;;;;;;24.75;12.40;;;4.20;99.90;;;;;;4975018;28;20781;-78
2022/11/26 08:14:05;;;;;;;26.92;12.68;;;4.20;99.90;;;;;;5007510;28;20053;-78
2022/11/26 08:16:31;;;;;;;27.23;12.77;;;4.30;99.90;;;;;;4976116;28;20067;-77
2022/11/26 08:18:59;;;;;;;34.03;13.80;;;4.30;99.90;;;;;;4975232;28;20097;-78
2022/11/26 08:21:26;;;;;;;27.17;13.10;;;4.30;99.90;;;;;;4954806;28;20046;-78
2022/11/26 08:23:52;;;;;;;30.42;13.55;;;4.40;99.90;;;;;;4977822;28;20054;-78
2022/11/26 08:26:22;;;;;;;26.20;12.80;;;4.50;99.90;;;;;;4971915;28;20053;-78
2022/11/26 08:28:47;;;;;;;31.17;13.55;;;4.50;99.90;;;;;;4981152;28;20045;-77
2022/11/26 08:31:14;;;;;;;29.70;12.50;;;4.50;99.90;;;;;;4965749;28;20057;-78
2022/11/26 08:33:41;;;;;;;26.38;13.07;;;4.60;99.90;;;;;;4981130;28;20042;-77
2022/11/26 08:36:07;;;;;;;34.10;13.77;;;4.60;99.90;;;;;;4978030;28;20035;-78
2022/11/26 08:38:33;;;;;;;25.27;14.00;;;4.70;99.90;;;;;;4970091;28;20093;-77
2022/11/26 08:41:00;;;;;;;27.95;13.40;;;4.80;99.90;;;;;;4988579;28;20459;-78
2022/11/26 08:43:26;;;;;;;26.40;12.77;;;4.90;99.90;;;;;;4982228;28;20038;-77
2022/11/26 08:45:53;;;;;;;27.33;13.48;;;4.90;99.90;;;;;;4981838;28;20109;-77
2022/11/26 08:48:19;;;;;;;34.08;13.63;;;5.00;99.90;;;;;;4965701;28;20030;-78
2022/11/26 08:50:44;;;;;;;30.85;13.70;;;5.10;99.90;;;;;;4965868;28;20053;-78
2022/11/26 08:53:10;;;;;;;27.33;13.18;;;5.10;99.90;;;;;;4965965;28;20136;-77
2022/11/26 08:55:35;;;;;;;26.85;13.52;;;5.10;99.90;;;;;;4997555;28;20096;-78
2022/11/26 08:58:01;;;;;;;30.95;13.25;;;5.10;99.90;;;;;;4997341;28;20048;-78
2022/11/26 09:00:26;;;;;;;33.00;13.77;;;5.20;99.90;;;;;;4982254;28;20035;-78
2022/11/26 09:02:52;;;;;;;28.23;14.00;;;5.20;99.90;;;;;;4981918;28;20050;-78
2022/11/26 09:05:17;;;;;;;29.08;13.23;;;5.20;99.90;;;;;;4997780;28;20042;-78
2022/11/26 09:07:43;;;;;;;30.95;13.25;;;5.20;99.90;;;;;;4997299;28;20546;-78
2022/11/26 09:10:09;;;;;;;22.40;12.85;;;5.30;99.90;;;;;;4981915;28;20042;-77
2022/11/26 09:12:34;;;;;;;27.98;13.02;;;5.30;99.90;;;;;;4965508;28;20137;-78
2022/11/26 09:15:00;;;;;;;27.52;13.07;;;5.30;99.90;;;;;;5014565;28;20113;-78
2022/11/26 09:17:25;;;;;;;30.05;13.18;;;5.40;99.90;;;;;;4981780;28;20050;-77
2022/11/26 09:19:51;;;;;;;30.55;13.90;;;5.40;99.90;;;;;;5014130;28;20038;-77
2022/11/26 09:22:16;;;;;;;32.45;13.20;;;5.50;99.90;;;;;;4998932;28;20542;-78
2022/11/26 09:24:42;;;;;;;31.75;13.27;;;5.60;99.90;;;;;;4981452;28;20041;-78
2022/11/26 09:27:10;;;;;;;38.70;14.13;;;5.50;99.90;;;;;;5013847;28;20049;-78
2022/11/26 09:29:36;;;;;;;27.38;12.82;;;5.60;99.90;;;;;;4964480;28;20443;-77
2022/11/26 09:32:02;;;;;;;28.73;13.18;;;5.70;99.90;;;;;;4966676;28;20050;-77
2022/11/26 09:34:28;;;;;;;29.38;13.43;;;5.70;99.90;;;;;;4967103;28;20516;-77
2022/11/26 09:36:53;;;;;;;27.27;12.50;;;5.70;99.90;;;;;;4980884;28;20042;-77
2022/11/26 09:39:19;;;;;;;30.85;13.50;;;5.90;99.90;;;;;;5011660;28;20692;-78
2022/11/26 09:41:58;;;;;;;32.58;12.93;;;5.90;99.90;;;;;;5011606;28;20076;-78
2022/11/26 09:44:53;;;;;;;25.65;12.00;;;5.90;99.90;;;;;;4978751;28;20105;-78
2022/11/26 09:47:25;;;;;;;27.25;12.30;;;6.00;99.90;;;;;;4978312;28;20042;-78
2022/11/26 09:50:14;;;;;;;30.42;12.80;;;6.10;99.90;;;;;;4978525;28;20038;-77
2022/11/26 09:53:00;;;;;;;31.73;13.05;;;6.10;99.90;;;;;;4977573;28;20471;-77
2022/11/26 09:55:34;;;;;;;34.40;13.60;;;6.20;99.90;;;;;;4973422;28;20447;-78
2022/11/26 09:58:20;;;;;;;30.80;13.43;;;6.20;99.90;;;;;;4962029;28;20042;-78
2022/11/26 10:00:52;;;;;;;27.75;12.38;;;6.30;99.90;;;;;;4978938;28;20404;-79
2022/11/26 10:03:30;;;;;;;26.98;12.18;;;6.40;99.90;;;;;;4979756;28;20073;-77
2022/11/26 10:06:14;;;;;;;32.50;12.00;;;6.40;99.90;;;;;;4979138;28;20049;-77
2022/11/26 10:09:05;;;;;;;30.33;12.93;;;6.50;99.90;;;;;;4979161;28;20053;-77
2022/11/26 10:11:56;;;;;;;26.80;12.70;;;6.60;99.90;;;;;;4980471;28;20045;-78
2022/11/26 10:14:44;;;;;;;29.45;12.90;;;6.60;99.90;;;;;;4978211;28;20048;-78
2022/11/26 10:17:22;;;;;;;30.92;13.75;;;6.60;99.90;;;;;;4978380;28;20057;-78
2022/11/26 10:20:23;;;;;;;26.90;13.25;;;6.70;99.90;;;;;;4978019;28;20408;-78
2022/11/26 10:23:06;;;;;;;33.97;12.70;;;6.70;99.90;;;;;;4957936;28;20500;-78
2022/11/26 10:25:40;;;;;;;27.50;12.38;;;6.80;99.90;;;;;;4976558;28;20389;-78
2022/11/26 10:28:44;;;;;;;26.50;12.25;;;6.80;99.90;;;;;;4977987;28;20124;-78
2022/11/26 10:31:24;;;;;;;32.85;13.05;;;6.90;99.90;;;;;;4958041;28;20042;-79
2022/11/26 10:33:52;;;;;;;31.98;14.80;;;6.90;99.90;;;;;;4976522;28;20077;-78
2022/11/26 10:36:31;;;;;;;25.70;13.80;;;7.00;99.90;;;;;;4991165;28;20042;-78
2022/11/26 10:38:57;;;;;;;31.88;14.10;;;7.00;99.90;;;;;;4987409;28;20069;-78
2022/11/26 10:41:26;;;;;;;31.25;13.45;;;7.10;99.90;;;;;;5010940;28;20093;-79
2022/11/26 10:43:52;;;;;;;32.67;13.98;;;7.10;99.90;;;;;;4977969;28;20050;-79
2022/11/26 10:46:34;;;;;;;27.40;13.43;;;7.20;99.90;;;;;;4968920;28;20038;-78
2022/11/26 10:49:29;;;;;;;26.38;12.95;;;7.30;99.90;;;;;;4976290;28;20471;-77
2022/11/26 10:52:02;;;;;;;33.05;13.95;;;7.30;99.90;;;;;;4968647;28;20057;-78
2022/11/26 10:54:37;;;;;;;34.58;13.85;;;7.30;99.90;;;;;;4953707;28;20140;-79
2022/11/26 10:57:14;;;;;;;36.10;13.95;;;7.40;99.90;;;;;;4993741;28;20050;-79
2022/11/26 10:59:48;;;;;;;34.42;13.40;;;7.40;99.90;;;;;;4978548;28;20519;-79
2022/11/26 11:02:37;;;;;;;;;;;7.50;99.90;;;;;;4978879;28;20034;-79
2022/11/26 11:05:06;;;;;;;33.80;13.50;;;7.50;99.90;;;;;;4978351;28;19918;-79
2022/11/26 11:07:32;;;;;;;36.35;15.10;;;7.50;99.90;;;;;;4975528;28;20042;-79
2022/11/26 11:10:20;;;;;;;37.00;13.52;;;7.50;99.90;;;;;;4977327;28;20523;-79
2022/11/26 11:13:09;;;;;;;27.27;13.90;;;7.50;99.90;;;;;;4977667;28;20041;-79
2022/11/26 11:15:35;;;;;;;30.90;13.75;;;7.60;99.90;;;;;;4977660;28;20046;-79
2022/11/26 11:18:12;;;;;;;37.30;14.65;;;7.60;99.90;;;;;;4976971;28;20030;-80
2022/11/26 11:20:40;;;;;;;34.45;14.55;;;7.70;99.90;;;;;;4977682;28;20077;-79
2022/11/26 11:23:09;;;;;;;34.15;14.90;;;7.70;99.90;;;;;;4961915;28;20065;-79
2022/11/26 11:25:55;;;;;;;31.40;14.55;;;7.80;99.90;;;;;;4961256;28;20046;-80
2022/11/26 11:28:23;;;;;;;27.08;13.85;;;7.80;99.90;;;;;;4977032;28;20463;-80
2022/11/26 11:31:15;;;;;;;29.67;14.68;;;7.80;99.90;;;;;;4977933;28;20046;-80
2022/11/26 11:33:41;;;;;;;34.03;14.50;;;7.90;99.90;;;;;;4977361;28;20073;-80
2022/11/26 11:36:12;;;;;;;35.67;14.48;;;7.90;99.90;;;;;;4960930;28;20138;-80
2022/11/26 11:38:59;;;;;;;25.77;13.57;;;7.90;99.90;;;;;;4977973;28;20050;-81
2022/11/26 11:41:38;;;;;;;33.65;13.55;;;7.90;99.90;;;;;;4994170;28;20042;-80
2022/11/26 11:44:23;;;;;;;28.63;13.75;;;7.90;99.90;;;;;;4975067;28;20059;-80
2022/11/26 11:47:13;;;;;;;31.63;13.13;;;8.00;99.90;;;;;;4977306;28;20045;-80
2022/11/26 11:50:16;;;;;;;32.28;12.70;;;8.00;99.90;;;;;;4964035;28;20120;-80
2022/11/26 11:52:58;;;;;;;38.08;13.00;;;8.00;99.90;;;;;;4977299;28;20046;-80
2022/11/26 11:55:29;;;;;;;34.05;12.82;;;8.10;99.90;;;;;;4974860;28;20666;-80
2022/11/26 11:58:15;;;;;;;29.75;12.77;;;8.00;99.90;;;;;;4973438;28;20081;-80
2022/11/26 12:01:12;;;;;;;32.72;12.93;;;8.10;99.90;;;;;;4976197;28;20081;-79
2022/11/26 12:04:16;;;;;;;31.98;12.68;;;8.10;99.90;;;;;;4977132;28;20053;-80
2022/11/26 12:07:19;;;;;;;27.77;13.32;;;8.10;99.90;;;;;;4958246;28;20093;-80
2022/11/26 12:10:02;;;;;;;31.58;12.77;;;8.10;99.90;;;;;;4967061;28;20085;-80
2022/11/26 12:12:33;;;;;;;26.30;12.43;;;8.10;99.90;;;;;;4961284;28;20042;-80
2022/11/26 12:15:23;;;;;;;32.22;13.00;;;8.10;99.90;;;;;;4972403;28;20042;-82
2022/11/26 12:17:51;;;;;;;27.70;12.35;;;8.20;99.90;;;;;;4972208;28;20451;-81
2022/11/26 12:20:38;;;;;;;28.58;12.80;;;8.20;99.90;;;;;;4976806;28;20042;-80
2022/11/26 12:23:24;;;;;;;29.10;12.32;;;8.20;99.90;;;;;;4959529;28;20039;-80
2022/11/26 12:26:08;;;;;;;30.60;12.65;;;8.20;99.90;;;;;;4977341;28;20042;-80
2022/11/26 12:28:47;;;;;;;35.97;14.20;;;8.20;99.90;;;;;;4976871;28;20484;-80
2022/11/26 12:31:23;;;;;;;33.45;13.18;;;8.30;99.90;;;;;;4974391;28;20117;-81
2022/11/26 12:33:54;;;;;;;28.80;12.82;;;8.30;99.90;;;;;;4977272;28;20038;-80
2022/11/26 12:36:34;;;;;;;35.22;13.20;;;8.20;99.90;;;;;;4969812;28;20054;-81
2022/11/26 12:39:05;;;;;;;33.58;14.23;;;8.30;99.90;;;;;;4953853;28;20042;-80
2022/11/26 12:41:42;;;;;;;28.23;12.85;;;8.30;99.90;;;;;;4973709;28;20042;-79
2022/11/26 12:44:15;;;;;;;37.38;13.95;;;8.30;99.90;;;;;;4957756;28;20042;-79
2022/11/26 12:46:53;;;;;;;34.58;13.38;;;8.30;99.90;;;;;;4975499;28;20049;-80
2022/11/26 12:49:38;;;;;;;29.73;12.82;;;8.30;99.90;;;;;;5009102;28;20050;-80
2022/11/26 12:52:13;;;;;;;36.13;13.10;;;8.30;99.90;;;;;;5009339;28;20519;-81
2022/11/26 12:54:54;;;;;;;26.38;12.93;;;8.30;99.90;;;;;;4977550;28;20049;-81
2022/11/26 12:57:29;;;;;;;26.63;13.52;;;8.40;99.90;;;;;;4972630;28;20047;-81
2022/11/26 12:59:58;;;;;;;32.40;13.52;;;8.30;99.90;;;;;;4976483;28;20034;-80